KOMA/OMA METAR and TAF weather

Enter ICAO airport designator
Station Type Date Time Source
KOMA METAR 2021/07/27 20:52 UTC NOAA

KOMA 272052Z 20009KT 10SM FEW050 36/22 A2999 RMK AO2 SLP142 T03560217 56006


Station Type Date Time Source
KOMA Decoded METAR 2021/07/27 20:52 UTC NOAA

OMAHA EPPLEY AIRFIELD, NE, United States (KOMA) 41-18N 095-54W 312M
Jul 27, 2021 - 04:52 PM EDT / 2021.07.27 2052 UTC
Wind: from the SSW (200 degrees) at 10 MPH (9 KT):0
Visibility: 10 mile(s):0
Sky conditions: mostly clear
Temperature: 96.1 F (35.6 C)
Heat index: 103.6 F (39.8 C):1
Dew Point: 71.1 F (21.7 C)
Relative Humidity: 44%
Pressure (altimeter): 29.99 in. Hg (1015 hPa)
Pressure tendency: 0.02 inches (0.6 hPa) lower than three hours ago
ob: KOMA 272052Z 20009KT 10SM FEW050 36/22 A2999 RMK AO2 SLP142 T03560217 56006
cycle: 21

Station Type Date Time Source
KOMA TAF 2021/07/27 18:22 UTC NOAA

TAF KOMA 271720Z 2718/2818 21010KT P6SM SKC
FM280100 18006KT P6SM FEW250
FM281500 21010KT P6SM FEW250

Example: see airport list